Flight Track Log - Related Links

Times and Time Zones

All times are in EDT time to prevent confusion due to time zone crossing. See the N256PH flight status page for this flight to view local times or setup timezone preferences in your user account.

Time Position Orientation Groundspeed Altitude Reporting Facility
EDT Latitude Longitude Course Direction KTS MPH feet Rate Location/Type
Thu 04:10:14 PM 35.8664 -84.0106 238° Southwest 158 182 4,400  Level Atlanta Center
Thu 04:11:14 PM 35.8350 -84.0719 238° Southwest 136 157 6,400 2,200 Climbing Atlanta Center
Thu 04:12:14 PM 35.7892 -84.1333 227° Southwest 187 215 8,800 2,300 Climbing Atlanta Center
Thu 04:13:14 PM 35.7411 -84.1922 225° Southwest 218 251 11,000 2,350 Climbing Atlanta Center
Thu 04:14:14 PM 35.6931 -84.2536 226° Southwest 244 281 13,500 2,300 Climbing Atlanta Center
Thu 04:15:14 PM 35.6450 -84.3172 227° Southwest 255 293 15,600 2,100 Climbing Atlanta Center
Thu 04:16:14 PM 35.5947 -84.3861 228° Southwest 260 299 17,700 1,950 Climbing Atlanta Center
Thu 04:17:14 PM 35.5403 -84.4522 225° Southwest 265 305 19,500 1,750 Climbing Atlanta Center
Thu 04:18:14 PM 35.4878 -84.5208 227° Southwest 271 312 21,200 1,650 Climbing Atlanta Center
Thu 04:19:14 PM 35.4311 -84.5919 226° Southwest 277 319 22,800 1,400 Climbing Atlanta Center
Thu 04:20:14 PM 35.3744 -84.6628 226° Southwest 282 325 24,000 1,200 Climbing Atlanta Center
Thu 04:21:14 PM 35.3178 -84.7361 227° Southwest 293 337 25,200 1,200 Climbing Atlanta Center
Thu 04:22:14 PM 35.2569 -84.8119 226° Southwest 303 349 26,400 1,150 Climbing Atlanta Center
Thu 04:23:14 PM 35.1958 -84.8903 226° Southwest 314 361 27,500 1,050 Climbing Atlanta Center
Thu 04:24:14 PM 35.1369 -84.9683 227° Southwest 314 361 28,500 1,050 Climbing Atlanta Center
Thu 04:25:14 PM 35.0717 -85.0489 225° Southwest 320 368 29,600 1,200 Climbing Atlanta Center
Thu 04:26:14 PM 35.0125 -85.1242 226° Southwest 320 368 30,900 1,100 Climbing Atlanta Center
Thu 04:27:14 PM 34.9511 -85.2019 226° Southwest 315 362 31,800 900 Climbing Atlanta Center
Thu 04:28:14 PM 34.8900 -85.2822 227° Southwest 320 368 32,700 1,000 Climbing Atlanta Center
Thu 04:29:14 PM 34.8264 -85.3597 225° Southwest 320 368 33,800 1,200 Climbing Atlanta Center
Thu 04:30:14 PM 34.7650 -85.4394 227° Southwest 320 368 35,100 1,150 Climbing Atlanta Center
Thu 04:31:14 PM 34.7058 -85.5144 226° Southwest 315 362 36,100 1,000 Climbing Atlanta Center
Thu 04:32:14 PM 34.6444 -85.5892 225° Southwest 315 362 37,100 850 Climbing Atlanta Center
Thu 04:33:14 PM 34.5914 -85.6561 226° Southwest 315 362 37,800 450 Climbing Atlanta Center
Thu 04:34:14 PM 34.5256 -85.7356 225° Southwest 320 368 38,000 100 Climbing Atlanta Center
Thu 04:35:14 PM 34.4575 -85.8200 226° Southwest 333 383 38,000  Level Atlanta Center
Thu 04:36:14 PM 34.3853 -85.9089 225° Southwest 352 405 38,000  Level Atlanta Center
Thu 04:37:14 PM 34.3089 -86.0003 225° Southwest 373 429 38,000  Level Atlanta Center
Thu 04:38:14 PM 34.2300 -86.0939 224° Southwest 391 450 38,000  Level Atlanta Center
Thu 04:39:14 PM 34.1469 -86.1975 226° Southwest 397 457 38,000  Level Atlanta Center
Thu 04:40:14 PM 34.0700 -86.2908 225° Southwest 397 457 38,000  Level Atlanta Center
Thu 04:41:14 PM 33.9931 -86.3864 226° Southwest 397 457 38,000  Level Atlanta Center
Thu 04:42:14 PM 33.9161 -86.4794 225° Southwest 397 457 38,000  Level Atlanta Center
Thu 04:43:14 PM 33.8392 -86.5697 224° Southwest 397 457 38,000  Level Atlanta Center
Thu 04:44:14 PM 33.7642 -86.6600 225° Southwest 397 457 38,000  Level Atlanta Center
Thu 04:45:14 PM 33.6892 -86.7575 227° Southwest 397 457 38,000  Level Atlanta Center
Thu 04:46:14 PM 33.6119 -86.8475 224° Southwest 397 457 38,000  Level Atlanta Center
Thu 04:47:14 PM 33.5369 -86.9372 225° Southwest 392 451 38,000  Level Atlanta Center
Thu 04:48:14 PM 33.4636 -87.0269 226° Southwest 392 451 38,000  Level Atlanta Center
Thu 04:49:14 PM 33.3864 -87.1139 223° Southwest 392 451 38,000 -250 Level Atlanta Center
Thu 04:50:14 PM 33.3092 -87.1981 222° Southwest 392 451 37,500 -1,150 Descending Atlanta Center
Thu 04:51:14 PM 33.2064 -87.2217 191° South 378 435 35,700 -2,350 Descending Atlanta Center
Thu 04:52:14 PM 33.1056 -87.2428 190° South 366 421 32,800 -2,050 Descending Atlanta Center
Thu 04:53:14 PM 33.0322 -87.3367 227° Southwest 362 417 31,600 -1,050 Descending Atlanta Center
Thu 04:54:14 PM 32.9650 -87.4258 228° Southwest 378 435 30,700 -800 Descending Atlanta Center
Thu 04:55:14 PM 32.8869 -87.5317 229° Southwest 402 463 30,000 -350 Descending Atlanta Center
Thu 04:56:14 PM 32.8133 -87.6250 227° Southwest 409 471 30,000  Level Atlanta Center
Thu 04:57:14 PM 32.7297 -87.7322 227° Southwest 406 467 30,000  Level Memphis Center
Thu 04:58:14 PM 32.6689 -87.8228 231° Southwest 401 461 30,000  Level Memphis Center
Thu 04:59:14 PM 32.5853 -87.9214 225° Southwest 395 455 30,000  Level Memphis Center
Thu 05:00:14 PM 32.5161 -88.0144 229° Southwest 390 449 30,000  Level Memphis Center
Thu 05:01:14 PM 32.4489 -88.1022 228° Southwest 390 449 30,000  Level Memphis Center
Thu 05:02:14 PM 32.3775 -88.1950 228° Southwest 390 449 30,000 -200 Level Memphis Center
Thu 05:03:14 PM 32.3019 -88.2903 227° Southwest 390 449 29,600 -700 Descending Memphis Center
Thu 05:04:14 PM 32.2242 -88.3878 227° Southwest 402 463 28,600 -1,000 Descending Memphis Center
Thu 05:05:14 PM 32.1483 -88.4878 228° Southwest 402 463 27,600 -950 Descending Memphis Center
Thu 05:06:14 PM 32.0747 -88.5922 230° Southwest 407 468 26,700 -900 Descending Memphis Center
Thu 05:07:14 PM 32.0011 -88.6942 230° Southwest 413 475 25,800 -1,150 Descending Memphis Center
Thu 05:08:14 PM 31.9253 -88.7983 229° Southwest 413 475 24,400 -2,160 Descending Memphis Center
Thu 05:08:54 PM 31.8717 -88.8717 229° Southwest 410 472 22,200 -3,176 Descending Houston Center
Thu 05:09:56 PM 31.8053 -88.9514 226° Southwest 356 410 19,000 -3,048 Descending Houston Center
Thu 05:10:58 PM 31.7394 -89.0192 221° Southwest 322 371 15,900 -3,097 Descending Houston Center
Thu 05:12:00 PM 31.6964 -89.0906 235° Southwest 280 322 12,600 -3,145 Descending Houston Center
Thu 05:13:02 PM 31.6553 -89.1536 233° Southwest 254 292 9,400 -3,000 Descending Houston Center
Thu 05:14:04 PM 31.6022 -89.2142 224° Southwest 226 260 6,400 -2,903 Descending Houston Center
Thu 05:16:00 PM 31.4667 -89.3333 240° Southwest  Level FlightAware Approximate
Thu 05:23:00 PM 31.4671 -89.3371 240° Southwest  Level Estimated
Thu 05:24:00 PM 31.4667 -89.3333 240° Southwest  Level FlightAware Approximate
Thu 05:25:00 PM 31.4671 -89.3371 240° Southwest  Level Estimated

Login

Don't have an account? Register now (free) for customized features, flight alerts, and more!